sensor_id;sensor_type;location;lat;lon;timestamp;pressure;altitude;pressure_sealevel;temperature;humidity
71107;BME280;58763;47.982;11.516;2023-04-21T00:00:53;93778.19;;;6.50;84.18
71107;BME280;58763;47.982;11.516;2023-04-21T00:03:19;93770.66;;;6.52;84.44
71107;BME280;58763;47.982;11.516;2023-04-21T00:05:46;93777.09;;;6.56;84.29
71107;BME280;58763;47.982;11.516;2023-04-21T00:08:13;93767.97;;;6.67;83.83
71107;BME280;58763;47.982;11.516;2023-04-21T00:10:38;93781.13;;;6.69;83.87
71107;BME280;58763;47.982;11.516;2023-04-21T00:13:03;93789.19;;;6.69;83.16
71107;BME280;58763;47.982;11.516;2023-04-21T00:15:29;93784.88;;;6.68;83.65
71107;BME280;58763;47.982;11.516;2023-04-21T00:17:54;93777.63;;;6.63;83.55
71107;BME280;58763;47.982;11.516;2023-04-21T00:20:20;93775.75;;;6.59;83.70
71107;BME280;58763;47.982;11.516;2023-04-21T00:22:46;93778.72;;;6.57;84.09
71107;BME280;58763;47.982;11.516;2023-04-21T00:25:11;93768.50;;;6.54;84.24
71107;BME280;58763;47.982;11.516;2023-04-21T00:27:37;93768.25;;;6.51;84.36
71107;BME280;58763;47.982;11.516;2023-04-21T00:30:03;93759.38;;;6.45;84.55
71107;BME280;58763;47.982;11.516;2023-04-21T00:32:28;93749.97;;;6.58;83.04
71107;BME280;58763;47.982;11.516;2023-04-21T00:34:54;93746.47;;;6.67;82.14
71107;BME280;58763;47.982;11.516;2023-04-21T00:37:19;93745.97;;;6.45;83.01
71107;BME280;58763;47.982;11.516;2023-04-21T00:39:44;93746.19;;;6.54;82.92
71107;BME280;58763;47.982;11.516;2023-04-21T00:42:10;93738.72;;;6.56;82.64
71107;BME280;58763;47.982;11.516;2023-04-21T00:44:35;93743.56;;;6.44;83.23
71107;BME280;58763;47.982;11.516;2023-04-21T00:47:01;93735.75;;;6.37;83.58
71107;BME280;58763;47.982;11.516;2023-04-21T00:49:27;93728.50;;;6.38;84.05
71107;BME280;58763;47.982;11.516;2023-04-21T00:51:53;93727.16;;;6.35;83.91
71107;BME280;58763;47.982;11.516;2023-04-21T00:54:19;93725.56;;;6.39;83.72
71107;BME280;58763;47.982;11.516;2023-04-21T00:56:45;93720.44;;;6.43;83.71
71107;BME280;58763;47.982;11.516;2023-04-21T00:59:11;93719.38;;;6.44;83.73
71107;BME280;58763;47.982;11.516;2023-04-21T01:01:37;93728.78;;;6.46;83.56
71107;BME280;58763;47.982;11.516;2023-04-21T01:04:04;93728.50;;;6.43;83.80
71107;BME280;58763;47.982;11.516;2023-04-21T01:06:31;93718.56;;;6.43;83.46
71107;BME280;58763;47.982;11.516;2023-04-21T01:08:58;93738.72;;;6.46;83.42
71107;BME280;58763;47.982;11.516;2023-04-21T01:11:24;93730.13;;;6.44;83.00
71107;BME280;58763;47.982;11.516;2023-04-21T01:13:54;93736.56;;;6.43;82.81
71107;BME280;58763;47.982;11.516;2023-04-21T01:16:20;93732.53;;;6.35;83.26
71107;BME280;58763;47.982;11.516;2023-04-21T01:18:47;93723.13;;;6.33;83.42
71107;BME280;58763;47.982;11.516;2023-04-21T01:21:12;93726.38;;;6.30;83.78
71107;BME280;58763;47.982;11.516;2023-04-21T01:23:39;93732.00;;;6.33;83.67
71107;BME280;58763;47.982;11.516;2023-04-21T01:26:04;93739.81;;;6.30;83.74
71107;BME280;58763;47.982;11.516;2023-04-21T01:28:30;93734.69;;;6.33;83.41
71107;BME280;58763;47.982;11.516;2023-04-21T01:30:56;93741.16;;;6.32;83.19
71107;BME280;58763;47.982;11.516;2023-04-21T01:33:21;93732.81;;;6.34;82.97
71107;BME280;58763;47.982;11.516;2023-04-21T01:35:47;93735.78;;;6.27;83.46
71107;BME280;58763;47.982;11.516;2023-04-21T01:38:13;93738.47;;;6.27;84.07
71107;BME280;58763;47.982;11.516;2023-04-21T01:40:44;93735.50;;;6.34;83.54
71107;BME280;58763;47.982;11.516;2023-04-21T01:43:11;93734.44;;;6.30;83.27
71107;BME280;58763;47.982;11.516;2023-04-21T01:45:37;93737.91;;;6.35;83.25
71107;BME280;58763;47.982;11.516;2023-04-21T01:48:02;93744.09;;;6.31;83.82
71107;BME280;58763;47.982;11.516;2023-04-21T01:50:28;93736.31;;;6.29;83.99
71107;BME280;58763;47.982;11.516;2023-04-21T01:52:53;93744.66;;;6.28;84.13
71107;BME280;58763;47.982;11.516;2023-04-21T01:55:19;93740.88;;;6.28;84.04
71107;BME280;58763;47.982;11.516;2023-04-21T01:57:44;93732.81;;;6.28;83.62
71107;BME280;58763;47.982;11.516;2023-04-21T02:00:10;93733.34;;;6.25;83.75
71107;BME280;58763;47.982;11.516;2023-04-21T02:02:36;93741.97;;;6.28;84.16
71107;BME280;58763;47.982;11.516;2023-04-21T02:05:01;93731.47;;;6.31;84.23
71107;BME280;58763;47.982;11.516;2023-04-21T02:07:27;93726.63;;;6.28;83.71
71107;BME280;58763;47.982;11.516;2023-04-21T02:09:52;93722.06;;;6.23;84.31
71107;BME280;58763;47.982;11.516;2023-04-21T02:12:17;93727.97;;;6.25;84.06
71107;BME280;58763;47.982;11.516;2023-04-21T02:14:43;93727.19;;;6.25;84.28
71107;BME280;58763;47.982;11.516;2023-04-21T02:17:10;93728.53;;;6.28;84.01
71107;BME280;58763;47.982;11.516;2023-04-21T02:19:35;93729.06;;;6.24;83.92
71107;BME280;58763;47.982;11.516;2023-04-21T02:22:01;93731.75;;;6.14;84.61
71107;BME280;58763;47.982;11.516;2023-04-21T02:24:28;93726.13;;;6.16;84.25
71107;BME280;58763;47.982;11.516;2023-04-21T02:26:53;93710.03;;;6.16;84.43
71107;BME280;58763;47.982;11.516;2023-04-21T02:29:19;93716.16;;;6.16;84.49
71107;BME280;58763;47.982;11.516;2023-04-21T02:31:44;93718.84;;;6.16;84.11
71107;BME280;58763;47.982;11.516;2023-04-21T02:34:09;93718.31;;;6.19;84.28
71107;BME280;58763;47.982;11.516;2023-04-21T02:36:35;93718.06;;;6.16;84.47
71107;BME280;58763;47.982;11.516;2023-04-21T02:39:00;93710.81;;;6.16;84.55
71107;BME280;58763;47.982;11.516;2023-04-21T02:41:27;93712.69;;;6.11;84.38
71107;BME280;58763;47.982;11.516;2023-04-21T02:43:53;93714.56;;;6.15;84.07
71107;BME280;58763;47.982;11.516;2023-04-21T02:46:18;93724.22;;;6.16;83.94
71107;BME280;58763;47.982;11.516;2023-04-21T02:48:44;93712.94;;;6.14;84.56
71107;BME280;58763;47.982;11.516;2023-04-21T02:51:13;93717.50;;;6.19;84.36
71107;BME280;58763;47.982;11.516;2023-04-21T02:53:40;93717.50;;;6.14;83.71
71107;BME280;58763;47.982;11.516;2023-04-21T02:56:07;93718.84;;;6.11;84.37
71107;BME280;58763;47.982;11.516;2023-04-21T02:58:36;93718.06;;;6.16;84.06
71107;BME280;58763;47.982;11.516;2023-04-21T03:01:02;93714.81;;;6.14;84.30
71107;BME280;58763;47.982;11.516;2023-04-21T03:03:29;93719.94;;;6.10;84.09
71107;BME280;58763;47.982;11.516;2023-04-21T03:05:58;93718.59;;;6.13;84.13
71107;BME280;58763;47.982;11.516;2023-04-21T03:08:24;93721.03;;;6.04;84.36
71107;BME280;58763;47.982;11.516;2023-04-21T03:10:51;93717.81;;;5.97;84.34
71107;BME280;58763;47.982;11.516;2023-04-21T03:13:16;93720.72;;;5.91;84.87
71107;BME280;58763;47.982;11.516;2023-04-21T03:15:42;93721.53;;;5.86;85.20
71107;BME280;58763;47.982;11.516;2023-04-21T03:18:07;93711.06;;;6.00;84.95
71107;BME280;58763;47.982;11.516;2023-04-21T03:20:33;93719.94;;;6.00;84.30
71107;BME280;58763;47.982;11.516;2023-04-21T03:22:58;93717.25;;;5.95;84.53
71107;BME280;58763;47.982;11.516;2023-04-21T03:25:24;93715.63;;;5.84;85.21
71107;BME280;58763;47.982;11.516;2023-04-21T03:27:52;93713.72;;;5.65;85.64
71107;BME280;58763;47.982;11.516;2023-04-21T03:30:18;93710.22;;;5.74;85.75
71107;BME280;58763;47.982;11.516;2023-04-21T03:32:43;93711.59;;;5.67;86.21
71107;BME280;58763;47.982;11.516;2023-04-21T03:35:09;93711.31;;;5.68;85.80
71107;BME280;58763;47.982;11.516;2023-04-21T03:37:35;93707.56;;;5.64;86.13
71107;BME280;58763;47.982;11.516;2023-04-21T03:40:00;93701.13;;;5.75;86.05
71107;BME280;58763;47.982;11.516;2023-04-21T03:42:26;93698.72;;;5.79;85.75
71107;BME280;58763;47.982;11.516;2023-04-21T03:44:51;93700.31;;;5.80;85.74
71107;BME280;58763;47.982;11.516;2023-04-21T03:47:17;93702.72;;;5.71;85.84
71107;BME280;58763;47.982;11.516;2023-04-21T03:49:42;93693.59;;;5.72;85.82
71107;BME280;58763;47.982;11.516;2023-04-21T03:52:08;93689.81;;;5.58;85.93
71107;BME280;58763;47.982;11.516;2023-04-21T03:54:33;93686.63;;;5.66;86.39
71107;BME280;58763;47.982;11.516;2023-04-21T03:56:59;93686.09;;;5.74;85.21
71107;BME280;58763;47.982;11.516;2023-04-21T03:59:24;93683.41;;;5.54;85.54
71107;BME280;58763;47.982;11.516;2023-04-21T04:01:50;93690.09;;;5.56;86.19
71107;BME280;58763;47.982;11.516;2023-04-21T04:04:15;93702.69;;;5.56;86.02
71107;BME280;58763;47.982;11.516;2023-04-21T04:06:41;93701.13;;;5.60;85.69
71107;BME280;58763;47.982;11.516;2023-04-21T04:09:06;93700.31;;;5.59;85.56
71107;BME280;58763;47.982;11.516;2023-04-21T04:11:33;93707.03;;;5.62;86.09
71107;BME280;58763;47.982;11.516;2023-04-21T04:13:58;93709.69;;;5.62;85.73
71107;BME280;58763;47.982;11.516;2023-04-21T04:16:24;93715.31;;;5.66;85.83
71107;BME280;58763;47.982;11.516;2023-04-21T04:18:49;93721.78;;;5.65;85.85
71107;BME280;58763;47.982;11.516;2023-04-21T04:21:15;93711.31;;;5.68;85.99
71107;BME280;58763;47.982;11.516;2023-04-21T04:23:41;93709.16;;;5.70;85.22
71107;BME280;58763;47.982;11.516;2023-04-21T04:26:07;93725.53;;;5.74;85.27
71107;BME280;58763;47.982;11.516;2023-04-21T04:28:32;93722.56;;;5.70;85.06
71107;BME280;58763;47.982;11.516;2023-04-21T04:30:59;93718.00;;;5.66;85.04
71107;BME280;58763;47.982;11.516;2023-04-21T04:33:25;93714.50;;;5.65;85.23
71107;BME280;58763;47.982;11.516;2023-04-21T04:35:50;93711.31;;;5.68;84.93
71107;BME280;58763;47.982;11.516;2023-04-21T04:38:17;93705.94;;;5.68;84.93
71107;BME280;58763;47.982;11.516;2023-04-21T04:40:42;93721.75;;;5.70;85.02
71107;BME280;58763;47.982;11.516;2023-04-21T04:43:08;93720.72;;;5.81;84.46
71107;BME280;58763;47.982;11.516;2023-04-21T04:45:35;93722.31;;;5.82;84.45
71107;BME280;58763;47.982;11.516;2023-04-21T04:48:02;93719.94;;;5.85;85.11
71107;BME280;58763;47.982;11.516;2023-04-21T04:50:28;93726.91;;;5.86;85.70
71107;BME280;58763;47.982;11.516;2023-04-21T04:52:53;93722.84;;;5.84;84.84
71107;BME280;58763;47.982;11.516;2023-04-21T04:55:20;93728.25;;;5.89;84.39
71107;BME280;58763;47.982;11.516;2023-04-21T04:57:46;93728.50;;;5.82;84.20
71107;BME280;58763;47.982;11.516;2023-04-21T05:00:12;93727.69;;;5.82;84.58
71107;BME280;58763;47.982;11.516;2023-04-21T05:02:39;93741.94;;;5.87;84.63
71107;BME280;58763;47.982;11.516;2023-04-21T05:05:05;93732.53;;;5.85;84.29
71107;BME280;58763;47.982;11.516;2023-04-21T05:07:32;93738.72;;;5.95;83.61
71107;BME280;58763;47.982;11.516;2023-04-21T05:09:58;93735.25;;;5.90;84.13
71107;BME280;58763;47.982;11.516;2023-04-21T05:12:23;93743.00;;;5.86;84.39
71107;BME280;58763;47.982;11.516;2023-04-21T05:14:49;93734.16;;;5.91;84.43
71107;BME280;58763;47.982;11.516;2023-04-21T05:17:14;93739.78;;;5.89;84.58
71107;BME280;58763;47.982;11.516;2023-04-21T05:19:40;93739.28;;;5.92;84.19
71107;BME280;58763;47.982;11.516;2023-04-21T05:22:05;93740.06;;;5.98;84.19
71107;BME280;58763;47.982;11.516;2023-04-21T05:24:32;93738.47;;;6.02;84.41
71107;BME280;58763;47.982;11.516;2023-04-21T05:26:57;93733.34;;;6.05;83.67
71107;BME280;58763;47.982;11.516;2023-04-21T05:29:23;93737.91;;;6.00;83.96
71107;BME280;58763;47.982;11.516;2023-04-21T05:31:48;93735.50;;;5.93;84.55
71107;BME280;58763;47.982;11.516;2023-04-21T05:34:13;93741.13;;;5.87;85.00
71107;BME280;58763;47.982;11.516;2023-04-21T05:36:42;93748.41;;;6.01;84.47
71107;BME280;58763;47.982;11.516;2023-04-21T05:39:08;93742.50;;;5.99;84.19
71107;BME280;58763;47.982;11.516;2023-04-21T05:41:33;93742.75;;;5.98;84.75
71107;BME280;58763;47.982;11.516;2023-04-21T05:43:59;93747.53;;;5.81;85.17
71107;BME280;58763;47.982;11.516;2023-04-21T05:46:24;93735.72;;;5.72;86.33
71107;BME280;58763;47.982;11.516;2023-04-21T05:48:50;93735.16;;;5.70;86.39
71107;BME280;58763;47.982;11.516;2023-04-21T05:51:15;93727.94;;;5.60;87.35
71107;BME280;58763;47.982;11.516;2023-04-21T05:53:42;93719.34;;;5.63;87.72
71107;BME280;58763;47.982;11.516;2023-04-21T05:56:08;93734.38;;;5.69;87.72
71107;BME280;58763;47.982;11.516;2023-04-21T05:58:34;93733.38;;;5.85;87.40
71107;BME280;58763;47.982;11.516;2023-04-21T06:01:00;93733.91;;;5.92;87.55
71107;BME280;58763;47.982;11.516;2023-04-21T06:03:26;93728.78;;;5.96;87.39
71107;BME280;58763;47.982;11.516;2023-04-21T06:05:55;93726.94;;;6.06;87.62
71107;BME280;58763;47.982;11.516;2023-04-21T06:08:23;93711.88;;;6.10;87.72
71107;BME280;58763;47.982;11.516;2023-04-21T06:10:49;93722.59;;;6.31;87.79
71107;BME280;58763;47.982;11.516;2023-04-21T06:13:14;93722.06;;;6.39;87.51
71107;BME280;58763;47.982;11.516;2023-04-21T06:15:40;93718.03;;;6.46;87.27
71107;BME280;58763;47.982;11.516;2023-04-21T06:18:06;93719.09;;;6.60;87.07
71107;BME280;58763;47.982;11.516;2023-04-21T06:20:31;93720.38;;;6.78;86.79
71107;BME280;58763;47.982;11.516;2023-04-21T06:22:57;93723.03;;;6.93;86.00
71107;BME280;58763;47.982;11.516;2023-04-21T06:25:22;93713.03;;;6.98;85.67
71107;BME280;58763;47.982;11.516;2023-04-21T06:27:48;93711.91;;;7.10;84.37
71107;BME280;58763;47.982;11.516;2023-04-21T06:30:14;93715.38;;;7.20;83.87
71107;BME280;58763;47.982;11.516;2023-04-21T06:32:39;93716.97;;;7.26;84.06
71107;BME280;58763;47.982;11.516;2023-04-21T06:35:05;93710.22;;;7.29;83.42
71107;BME280;58763;47.982;11.516;2023-04-21T06:37:30;93711.03;;;7.29;82.14
71107;BME280;58763;47.982;11.516;2023-04-21T06:39:56;93709.91;;;7.35;82.14
71107;BME280;58763;47.982;11.516;2023-04-21T06:42:22;93715.22;;;7.50;81.15
71107;BME280;58763;47.982;11.516;2023-04-21T06:44:47;93722.75;;;7.53;80.74
71107;BME280;58763;47.982;11.516;2023-04-21T06:47:12;93714.69;;;7.53;79.08
71107;BME280;58763;47.982;11.516;2023-04-21T06:49:38;93724.31;;;7.59;79.12
71107;BME280;58763;47.982;11.516;2023-04-21T06:52:04;93722.63;;;7.74;79.12
71107;BME280;58763;47.982;11.516;2023-04-21T06:54:29;93719.88;;;7.84;79.65
71107;BME280;58763;47.982;11.516;2023-04-21T06:56:55;93719.66;;;7.75;78.94
71107;BME280;58763;47.982;11.516;2023-04-21T06:59:21;93713.56;;;7.59;79.53
71107;BME280;58763;47.982;11.516;2023-04-21T07:01:47;93713.03;;;7.57;80.58
71107;BME280;58763;47.982;11.516;2023-04-21T07:04:17;93708.88;;;7.75;80.23
71107;BME280;58763;47.982;11.516;2023-04-21T07:06:42;93714.53;;;7.79;80.25
71107;BME280;58763;47.982;11.516;2023-04-21T07:09:08;93706.97;;;7.81;80.16
71107;BME280;58763;47.982;11.516;2023-04-21T07:11:33;93716.09;;;7.80;80.44
71107;BME280;58763;47.982;11.516;2023-04-21T07:13:59;93716.69;;;7.77;80.65
71107;BME280;58763;47.982;11.516;2023-04-21T07:16:27;93717.97;;;7.84;80.74
71107;BME280;58763;47.982;11.516;2023-04-21T07:18:52;93719.28;;;7.87;80.35
71107;BME280;58763;47.982;11.516;2023-04-21T07:21:18;93715.00;;;7.86;80.54
71107;BME280;58763;47.982;11.516;2023-04-21T07:23:43;93721.41;;;7.95;81.22
71107;BME280;58763;47.982;11.516;2023-04-21T07:26:09;93716.50;;;8.02;80.81
71107;BME280;58763;47.982;11.516;2023-04-21T07:28:34;93721.59;;;8.03;80.64
71107;BME280;58763;47.982;11.516;2023-04-21T07:31:00;93720.97;;;8.16;80.73
71107;BME280;58763;47.982;11.516;2023-04-21T07:33:25;93715.53;;;8.21;80.73
71107;BME280;58763;47.982;11.516;2023-04-21T07:35:51;93721.69;;;8.32;80.86
71107;BME280;58763;47.982;11.516;2023-04-21T07:38:16;93723.31;;;8.33;79.85
71107;BME280;58763;47.982;11.516;2023-04-21T07:40:42;93729.22;;;8.35;79.46
71107;BME280;58763;47.982;11.516;2023-04-21T07:43:07;93726.19;;;8.42;79.41
71107;BME280;58763;47.982;11.516;2023-04-21T07:45:33;93734.19;;;8.52;79.54
71107;BME280;58763;47.982;11.516;2023-04-21T07:47:58;93730.00;;;8.64;79.23
71107;BME280;58763;47.982;11.516;2023-04-21T07:50:24;93723.28;;;8.62;79.33
71107;BME280;58763;47.982;11.516;2023-04-21T07:52:49;93728.53;;;8.77;79.30
71107;BME280;58763;47.982;11.516;2023-04-21T07:55:15;93723.78;;;8.92;79.49
71107;BME280;58763;47.982;11.516;2023-04-21T07:57:40;93724.94;;;9.10;78.06
71107;BME280;58763;47.982;11.516;2023-04-21T08:00:06;93722.97;;;9.16;78.33
71107;BME280;58763;47.982;11.516;2023-04-21T08:02:32;93725.38;;;9.17;77.90
71107;BME280;58763;47.982;11.516;2023-04-21T08:04:57;93726.03;;;9.33;77.21
71107;BME280;58763;47.982;11.516;2023-04-21T08:07:23;93732.38;;;9.42;76.56
71107;BME280;58763;47.982;11.516;2023-04-21T08:09:48;93734.59;;;9.58;77.06
71107;BME280;58763;47.982;11.516;2023-04-21T08:12:13;93738.47;;;9.71;76.85
71107;BME280;58763;47.982;11.516;2023-04-21T08:14:39;93734.19;;;9.89;76.67
71107;BME280;58763;47.982;11.516;2023-04-21T08:17:04;93729.16;;;10.01;75.25
71107;BME280;58763;47.982;11.516;2023-04-21T08:19:30;93728.19;;;10.10;75.63
71107;BME280;58763;47.982;11.516;2023-04-21T08:21:55;93732.66;;;10.20;73.89
71107;BME280;58763;47.982;11.516;2023-04-21T08:24:22;93734.41;;;10.29;73.07
71107;BME280;58763;47.982;11.516;2023-04-21T08:26:47;93738.13;;;10.33;73.78
71107;BME280;58763;47.982;11.516;2023-04-21T08:29:12;93744.25;;;10.39;73.53
71107;BME280;58763;47.982;11.516;2023-04-21T08:31:38;93738.75;;;10.44;72.53
71107;BME280;58763;47.982;11.516;2023-04-21T08:34:03;93738.88;;;10.53;71.46
71107;BME280;58763;47.982;11.516;2023-04-21T08:36:29;93739.91;;;10.57;71.16
71107;BME280;58763;47.982;11.516;2023-04-21T08:38:56;93735.34;;;10.71;70.72
71107;BME280;58763;47.982;11.516;2023-04-21T08:41:23;93731.72;;;10.62;69.80
71107;BME280;58763;47.982;11.516;2023-04-21T08:43:49;93730.41;;;10.59;70.88
71107;BME280;58763;47.982;11.516;2023-04-21T08:46:15;93735.44;;;10.66;70.86
71107;BME280;58763;47.982;11.516;2023-04-21T08:48:40;93742.28;;;10.77;71.07
71107;BME280;58763;47.982;11.516;2023-04-21T08:51:08;93734.38;;;10.80;70.64
71107;BME280;58763;47.982;11.516;2023-04-21T08:53:39;93728.69;;;10.95;70.74
71107;BME280;58763;47.982;11.516;2023-04-21T08:56:06;93720.56;;;11.09;69.84
71107;BME280;58763;47.982;11.516;2023-04-21T08:58:31;93709.56;;;11.19;70.90
71107;BME280;58763;47.982;11.516;2023-04-21T09:00:57;93716.19;;;11.40;71.71
71107;BME280;58763;47.982;11.516;2023-04-21T09:03:24;93712.97;;;11.38;70.69
71107;BME280;58763;47.982;11.516;2023-04-21T09:05:57;93715.56;;;11.57;70.29
71107;BME280;58763;47.982;11.516;2023-04-21T09:08:23;93705.25;;;11.72;70.12
71107;BME280;58763;47.982;11.516;2023-04-21T09:10:53;93715.81;;;11.96;70.47
71107;BME280;58763;47.982;11.516;2023-04-21T09:13:19;93706.19;;;12.26;70.85
71107;BME280;58763;47.982;11.516;2023-04-21T09:15:50;93700.66;;;12.53;69.53
71107;BME280;58763;47.982;11.516;2023-04-21T09:18:19;93703.09;;;12.85;69.37
71107;BME280;58763;47.982;11.516;2023-04-21T09:20:46;93698.25;;;12.74;68.39
71107;BME280;58763;47.982;11.516;2023-04-21T09:23:12;93699.75;;;13.10;69.06
71107;BME280;58763;47.982;11.516;2023-04-21T09:25:38;93702.22;;;13.29;67.70
71107;BME280;58763;47.982;11.516;2023-04-21T09:28:08;93704.69;;;13.56;67.50
71107;BME280;58763;47.982;11.516;2023-04-21T09:30:36;93703.31;;;13.76;67.16
71107;BME280;58763;47.982;11.516;2023-04-21T09:33:01;93699.19;;;13.96;64.98
71107;BME280;58763;47.982;11.516;2023-04-21T09:35:28;93692.50;;;14.10;64.94
71107;BME280;58763;47.982;11.516;2023-04-21T09:37:55;93689.66;;;14.32;64.84
71107;BME280;58763;47.982;11.516;2023-04-21T09:40:20;93700.69;;;14.36;61.95
71107;BME280;58763;47.982;11.516;2023-04-21T09:42:46;93696.19;;;14.40;61.91
71107;BME280;58763;47.982;11.516;2023-04-21T09:45:12;93708.84;;;14.53;61.28
71107;BME280;58763;47.982;11.516;2023-04-21T09:47:40;93701.78;;;14.69;61.33
71107;BME280;58763;47.982;11.516;2023-04-21T09:50:11;93698.13;;;14.48;60.51
71107;BME280;58763;47.982;11.516;2023-04-21T09:52:38;93700.19;;;14.77;61.79
71107;BME280;58763;47.982;11.516;2023-04-21T09:55:09;93691.84;;;14.82;59.68
71107;BME280;58763;47.982;11.516;2023-04-21T09:57:37;93686.16;;;15.12;60.59
71107;BME280;58763;47.982;11.516;2023-04-21T10:00:05;93681.09;;;15.40;59.07
71107;BME280;58763;47.982;11.516;2023-04-21T10:02:42;93677.75;;;15.35;58.19
71107;BME280;58763;47.982;11.516;2023-04-21T10:05:08;93677.19;;;15.58;59.61
71107;BME280;58763;47.982;11.516;2023-04-21T10:07:34;93669.41;;;15.69;58.84
71107;BME280;58763;47.982;11.516;2023-04-21T10:10:00;93674.56;;;15.70;57.58
71107;BME280;58763;47.982;11.516;2023-04-21T10:12:26;93678.41;;;15.69;57.80
71107;BME280;58763;47.982;11.516;2023-04-21T10:14:54;93677.16;;;15.87;57.69
71107;BME280;58763;47.982;11.516;2023-04-21T10:17:24;93676.97;;;15.93;57.52
71107;BME280;58763;47.982;11.516;2023-04-21T10:19:54;93672.25;;;16.02;57.78
71107;BME280;58763;47.982;11.516;2023-04-21T10:22:28;93675.22;;;16.17;56.53
71107;BME280;58763;47.982;11.516;2023-04-21T10:24:56;93669.31;;;16.36;55.60
71107;BME280;58763;47.982;11.516;2023-04-21T10:29:57;93666.69;;;15.98;54.01
71107;BME280;58763;47.982;11.516;2023-04-21T10:32:42;93675.22;;;16.17;54.89
71107;BME280;58763;47.982;11.516;2023-04-21T10:35:14;93667.06;;;16.50;55.59
71107;BME280;58763;47.982;11.516;2023-04-21T10:37:42;93670.59;;;16.71;53.20
71107;BME280;58763;47.982;11.516;2023-04-21T10:40:34;93671.16;;;16.97;54.16
71107;BME280;58763;47.982;11.516;2023-04-21T10:43:03;93659.50;;;17.33;55.62
71107;BME280;58763;47.982;11.516;2023-04-21T10:45:29;93672.75;;;17.43;54.93
71107;BME280;58763;47.982;11.516;2023-04-21T10:47:58;93666.00;;;17.41;51.57
71107;BME280;58763;47.982;11.516;2023-04-21T10:50:30;93659.56;;;17.57;53.07
71107;BME280;58763;47.982;11.516;2023-04-21T10:53:09;93666.97;;;17.69;50.76
71107;BME280;58763;47.982;11.516;2023-04-21T10:55:35;93668.03;;;17.44;50.93
71107;BME280;58763;47.982;11.516;2023-04-21T10:58:05;93662.72;;;17.47;50.53
71107;BME280;58763;47.982;11.516;2023-04-21T11:00:34;93662.63;;;17.56;51.84
71107;BME280;58763;47.982;11.516;2023-04-21T11:03:02;93657.38;;;17.63;51.30
71107;BME280;58763;47.982;11.516;2023-04-21T11:05:33;93652.59;;;17.84;52.24
71107;BME280;58763;47.982;11.516;2023-04-21T11:08:02;93657.59;;;17.94;52.83
71107;BME280;58763;47.982;11.516;2023-04-21T11:10:27;93649.34;;;18.18;52.13
71107;BME280;58763;47.982;11.516;2023-04-21T11:12:56;93653.16;;;18.02;49.22
71107;BME280;58763;47.982;11.516;2023-04-21T11:15:21;93645.72;;;18.02;49.33
71107;BME280;58763;47.982;11.516;2023-04-21T11:17:47;93640.44;;;18.21;49.14
71107;BME280;58763;47.982;11.516;2023-04-21T11:20:13;93645.03;;;18.17;47.93
71107;BME280;58763;47.982;11.516;2023-04-21T11:22:40;93644.81;;;18.10;48.00
71107;BME280;58763;47.982;11.516;2023-04-21T11:25:15;93637.84;;;18.25;49.16
71107;BME280;58763;47.982;11.516;2023-04-21T11:27:41;93636.72;;;18.53;49.37
71107;BME280;58763;47.982;11.516;2023-04-21T11:30:16;93635.16;;;18.80;51.48
71107;BME280;58763;47.982;11.516;2023-04-21T11:32:42;93635.44;;;18.63;49.21
71107;BME280;58763;47.982;11.516;2023-04-21T11:35:07;93639.56;;;18.85;49.62
71107;BME280;58763;47.982;11.516;2023-04-21T11:37:33;93633.25;;;18.69;47.68
71107;BME280;58763;47.982;11.516;2023-04-21T11:39:59;93634.78;;;18.82;48.33
71107;BME280;58763;47.982;11.516;2023-04-21T11:42:25;93636.72;;;18.81;47.78
71107;BME280;58763;47.982;11.516;2023-04-21T11:44:55;93636.13;;;18.88;48.18
71107;BME280;58763;47.982;11.516;2023-04-21T11:47:22;93631.53;;;18.76;46.99
71107;BME280;58763;47.982;11.516;2023-04-21T11:50:00;93626.25;;;18.99;48.25
71107;BME280;58763;47.982;11.516;2023-04-21T11:52:27;93627.50;;;19.17;48.42
71107;BME280;58763;47.982;11.516;2023-04-21T11:54:59;93624.59;;;19.10;48.74
71107;BME280;58763;47.982;11.516;2023-04-21T11:57:29;93620.03;;;19.29;51.26
71107;BME280;58763;47.982;11.516;2023-04-21T12:00:00;93619.97;;;19.42;49.62
71107;BME280;58763;47.982;11.516;2023-04-21T12:02:28;93621.63;;;19.62;50.03
71107;BME280;58763;47.982;11.516;2023-04-21T12:05:04;93626.59;;;19.41;45.36
71107;BME280;58763;47.982;11.516;2023-04-21T12:07:50;93624.91;;;19.52;46.81
71107;BME280;58763;47.982;11.516;2023-04-21T12:10:20;93621.47;;;19.39;48.48
71107;BME280;58763;47.982;11.516;2023-04-21T12:12:46;93618.19;;;19.49;46.62
71107;BME280;58763;47.982;11.516;2023-04-21T12:15:17;93619.06;;;19.69;48.70
71107;BME280;58763;47.982;11.516;2023-04-21T12:17:44;93624.34;;;19.77;48.10
71107;BME280;58763;47.982;11.516;2023-04-21T12:20:11;93626.28;;;19.77;46.73
71107;BME280;58763;47.982;11.516;2023-04-21T12:22:37;93624.19;;;19.86;48.23
71107;BME280;58763;47.982;11.516;2023-04-21T12:25:03;93619.03;;;19.84;50.10
71107;BME280;58763;47.982;11.516;2023-04-21T12:27:29;93619.63;;;19.93;47.95
71107;BME280;58763;47.982;11.516;2023-04-21T12:29:55;93618.72;;;20.05;47.61
71107;BME280;58763;47.982;11.516;2023-04-21T12:32:20;93618.53;;;20.14;47.23
71107;BME280;58763;47.982;11.516;2023-04-21T12:34:46;93624.31;;;20.09;47.31
71107;BME280;58763;47.982;11.516;2023-04-21T12:37:12;93614.19;;;20.13;48.79
71107;BME280;58763;47.982;11.516;2023-04-21T12:39:37;93620.22;;;20.02;48.30
71107;BME280;58763;47.982;11.516;2023-04-21T12:42:03;93619.56;;;19.90;47.71
71107;BME280;58763;47.982;11.516;2023-04-21T12:44:28;93608.22;;;19.91;49.15
71107;BME280;58763;47.982;11.516;2023-04-21T12:46:54;93608.09;;;20.04;49.26
71107;BME280;58763;47.982;11.516;2023-04-21T12:49:21;93614.31;;;20.00;46.38
71107;BME280;58763;47.982;11.516;2023-04-21T12:51:47;93611.13;;;19.98;45.73
71107;BME280;58763;47.982;11.516;2023-04-21T12:54:13;93612.19;;;19.94;46.30
71107;BME280;58763;47.982;11.516;2023-04-21T12:56:40;93614.13;;;19.93;47.48